Beale Air Force Base Marysville US
ICAO: KBAB
IATA: BAB
Category: Large
Scheduled Services: No

Elevation: 113 ft
TransAlt. 18000 ft.

Airport Communications:
940TH COMD POST:25.602
NORCAL APP:125.4
ATIS:27.35
NORCAL DEP:125.4
GND:121.6
SUPERVISOR OF FLYING:138.5
PMSV METRO:23.98
WING COMD POST:32.1
PTD:140.875
TWR:119.4

KBAB Zoom In..

If you have problems with the map follow the link
https://www.worldairports.se/pages/airport.php?
ICAO=KBAB

Runways:

(A) RW 15 length 12000 ft width 300 ft
ILS 109.50 / hdg 145

(B) RW 33 length 12000 ft width 300 ft
ILS 109.50 / hdg 325

Location; KBAB
Day. 12 / Time. 23.43 Zulu
* Altimeter: 30.26
* Temperature: 15° c. 59°f.
* Wind from: 110° Speed 06 kn.
Dewpoint: 13° c.
Visibility: 10 Statute Miles.
Clouds: Broken 2400 ft.
Clouds: Overcast 12000 ft.
Clouds: Broken 00 ft.
Clouds: Scattered 00 ft.

KBAB 122343Z AUTO 11006KT 10SM BKN024 OVC120 15/13 A3026 RMK AO2 CIG 024V120 BKN V SCT SLP250 $


Wind From 110°
Speed 06 kn.

 
 
jpsmedia worldairports.se 2019   terms of use